Dades meteomassalio
Diari Summary for Gener 21, 2017 Units:  Metric    English   Both
« Previous Day
Next Day »
Diari Semanal Mensual Anual Personalitzat
  Maxima: Minima: Mijana:
Temperatura: 8.0 °C 2.9 °C 5.4 °C
Rosada: 4.4 °C 1.7 °C 3.6 °C
Humitat: 94 % 72 % 88 %
Velocitat del vent: 20.4 km/h 0.0 km/h 2.4 km/h
Racha vent: 20.4 km/h - -
Vent:- - WNW
Pressio: 1022.6 hPa 1018.8 hPa -
Pluja: 0.0 mm    
Historical Graphs
 
 
Tabular Data for Gener 21, 2017
Time Temperature Dew Point Pressure Wind Wind Speed Wind Gust Humidity Rainfall Rate (Hourly) solar Conditions
00:02 5.0 °C 4.1 °C 1022.2 hPa Calm     94 % 0.0 mm 0.0 W/m2 RA
00:07 5.1 °C 4.2 °C 1022.2 hPa Calm     94 % 0.0 mm 0.0 W/m2 CLR
00:12 5.0 °C 4.1 °C 1022.2 hPa Calm     94 % 0.0 mm 0.0 W/m2 CLR
00:17 5.0 °C 4.1 °C 1022.2 hPa Calm     94 % 0.0 mm 0.0 W/m2 CLR
00:22 5.0 °C 4.1 °C 1021.9 hPa Calm     94 % 0.0 mm 0.0 W/m2 CLR
00:27 4.9 °C 4.1 °C 1021.9 hPa Calm     94 % 0.0 mm 0.0 W/m2 CLR
00:32 4.9 °C 4.0 °C 1021.9 hPa Calm     94 % 0.0 mm 0.0 W/m2 CLR
00:37 4.9 °C 4.0 °C 1021.9 hPa Calm     94 % 0.0 mm 0.0 W/m2 CLR
00:42 4.9 °C 4.0 °C 1021.9 hPa Calm     94 % 0.0 mm 0.0 W/m2 CLR
00:47 4.9 °C 4.0 °C 1021.9 hPa Calm     94 % 0.0 mm 0.0 W/m2 CLR
00:52 4.9 °C 4.0 °C 1021.9 hPa Calm     94 % 0.0 mm 0.0 W/m2 CLR
00:57 4.8 °C 3.9 °C 1021.9 hPa Calm     94 % 0.0 mm 0.0 W/m2 CLR
01:02 4.8 °C 3.9 °C 1021.9 hPa Calm     94 % 0.0 mm 0.0 W/m2 CLR
01:07 4.8 °C 3.9 °C 1021.9 hPa Calm     94 % 0.0 mm 0.0 W/m2 CLR
01:12 4.8 °C 3.9 °C 1021.9 hPa Calm     94 % 0.0 mm 0.0 W/m2 CLR
01:17 4.8 °C 3.9 °C 1021.9 hPa Calm     94 % 0.0 mm 0.0 W/m2 CLR
01:22 4.8 °C 3.9 °C 1021.9 hPa Calm     94 % 0.0 mm 0.0 W/m2 CLR
01:27 4.8 °C 3.9 °C 1021.9 hPa Calm     94 % 0.0 mm 0.0 W/m2 CLR
01:33 4.7 °C 3.8 °C 1021.9 hPa Calm     94 % 0.0 mm 0.0 W/m2 CLR
01:38 4.7 °C 3.8 °C 1021.9 hPa Calm     94 % 0.0 mm 0.0 W/m2 CLR
01:43 4.7 °C 3.8 °C 1021.9 hPa Calm     94 % 0.0 mm 0.0 W/m2 CLR
01:48 4.6 °C 3.7 °C 1021.6 hPa Calm     94 % 0.0 mm 0.0 W/m2 CLR
01:53 4.6 °C 3.7 °C 1021.9 hPa Calm     94 % 0.0 mm 0.0 W/m2 CLR
01:58 4.6 °C 3.7 °C 1021.6 hPa Calm     94 % 0.0 mm 0.0 W/m2 CLR
02:03 4.6 °C 3.7 °C 1021.6 hPa Calm     94 % 0.0 mm 0.0 W/m2 CLR
02:08 4.6 °C 3.7 °C 1021.6 hPa Calm     94 % 0.0 mm 0.0 W/m2 CLR
02:13 4.6 °C 3.7 °C 1021.6 hPa Calm     94 % 0.0 mm 0.0 W/m2 CLR
02:18 4.6 °C 3.7 °C 1021.6 hPa Calm     94 % 0.0 mm 0.0 W/m2 CLR
02:23 4.6 °C 3.7 °C 1021.6 hPa Calm     94 % 0.0 mm 0.0 W/m2 CLR
02:28 4.6 °C 3.7 °C 1021.6 hPa Calm     94 % 0.0 mm 0.0 W/m2 CLR
02:33 4.6 °C 3.7 °C 1021.6 hPa Calm     94 % 0.0 mm 0.0 W/m2 CLR
02:38 4.6 °C 3.7 °C 1021.6 hPa Calm     94 % 0.0 mm 0.0 W/m2 CLR
02:43 4.6 °C 3.7 °C 1021.6 hPa Calm     94 % 0.0 mm 0.0 W/m2 CLR
02:48 4.6 °C 3.7 °C 1021.6 hPa Calm     94 % 0.0 mm 0.0 W/m2 CLR
02:53 4.6 °C 3.7 °C 1021.6 hPa Calm     94 % 0.0 mm 0.0 W/m2 CLR
02:58 4.6 °C 3.7 °C 1021.6 hPa Calm     94 % 0.0 mm 0.0 W/m2 CLR
03:03 4.6 °C 3.7 °C 1021.6 hPa Calm     94 % 0.0 mm 0.0 W/m2 CLR
03:08 4.6 °C 3.7 °C 1021.6 hPa Calm     94 % 0.0 mm 0.0 W/m2 CLR
03:13 4.6 °C 3.7 °C 1021.6 hPa Calm     94 % 0.0 mm 0.0 W/m2 CLR
03:18 4.7 °C 3.8 °C 1021.6 hPa Calm     94 % 0.0 mm 0.0 W/m2 CLR
03:23 4.6 °C 3.7 °C 1021.6 hPa Calm     94 % 0.0 mm 0.0 W/m2 CLR
03:28 4.7 °C 3.8 °C 1021.6 hPa Calm     94 % 0.0 mm 0.0 W/m2 CLR
03:33 4.7 °C 3.8 °C 1021.9 hPa Calm     94 % 0.0 mm 0.0 W/m2 CLR
03:38 4.7 °C 3.8 °C 1021.9 hPa Calm     94 % 0.0 mm 0.0 W/m2 CLR
03:43 4.7 °C 3.8 °C 1021.6 hPa Calm     94 % 0.0 mm 0.0 W/m2 CLR
03:48 4.6 °C 3.6 °C 1021.9 hPa Calm     93 % 0.0 mm 0.0 W/m2 CLR
03:53 4.6 °C 3.5 °C 1021.6 hPa Calm     93 % 0.0 mm 0.0 W/m2 CLR
03:58 4.6 °C 3.5 °C 1021.6 hPa Calm     93 % 0.0 mm 0.0 W/m2 CLR
04:03 4.6 °C 3.5 °C 1021.6 hPa Calm     93 % 0.0 mm 0.0 W/m2 CLR
04:08 4.5 °C 3.4 °C 1021.6 hPa Calm     93 % 0.0 mm 0.0 W/m2 CLR
04:13 4.4 °C 3.4 °C 1021.6 hPa Calm     93 % 0.0 mm 0.0 W/m2 CLR
04:18 4.4 °C 3.3 °C 1021.6 hPa Calm     93 % 0.0 mm 0.0 W/m2 CLR
04:23 4.4 °C 3.3 °C 1021.6 hPa Calm     93 % 0.0 mm 0.0 W/m2 CLR
04:28 4.4 °C 3.3 °C 1021.6 hPa Calm     93 % 0.0 mm 0.0 W/m2 CLR
04:33 4.4 °C 3.3 °C 1021.6 hPa Calm     93 % 0.0 mm 0.0 W/m2 CLR
04:38 4.4 °C 3.3 °C 1021.6 hPa Calm     93 % 0.0 mm 0.0 W/m2 CLR
04:43 4.4 °C 3.3 °C 1021.6 hPa Calm     93 % 0.0 mm 0.0 W/m2 CLR
04:48 4.4 °C 3.3 °C 1021.6 hPa Calm     93 % 0.0 mm 0.0 W/m2 CLR
04:53 4.4 °C 3.3 °C 1021.6 hPa Calm     93 % 0.0 mm 0.0 W/m2 CLR
04:58 4.4 °C 3.4 °C 1021.6 hPa Calm     93 % 0.0 mm 0.0 W/m2 CLR
05:03 4.4 °C 3.4 °C 1021.6 hPa Calm     93 % 0.0 mm 0.0 W/m2 CLR
05:08 4.5 °C 3.4 °C 1021.2 hPa Calm     93 % 0.0 mm 0.0 W/m2 CLR
05:13 4.5 °C 3.4 °C 1021.2 hPa Calm     93 % 0.0 mm 0.0 W/m2 CLR
05:18 4.5 °C 3.4 °C 1021.2 hPa Calm     93 % 0.0 mm 0.0 W/m2 CLR
05:23 4.5 °C 3.4 °C 1021.6 hPa Calm     93 % 0.0 mm 0.0 W/m2 CLR
05:28 4.4 °C 3.4 °C 1021.6 hPa Calm     93 % 0.0 mm 0.0 W/m2 CLR
05:33 4.4 °C 3.3 °C 1021.6 hPa Calm     93 % 0.0 mm 0.0 W/m2 CLR
05:38 4.3 °C 3.3 °C 1021.6 hPa Calm     93 % 0.0 mm 0.0 W/m2 CLR
05:43 4.3 °C 3.2 °C 1021.6 hPa Calm     93 % 0.0 mm 0.0 W/m2 CLR
05:48 4.2 °C 3.2 °C 1021.6 hPa Calm     93 % 0.0 mm 0.0 W/m2 CLR
05:53 4.1 °C 3.1 °C 1021.6 hPa NW 5.6 km/h 5.6 km/h 93 % 0.0 mm 0.0 W/m2 CLR
05:58 4.1 °C 3.1 °C 1021.6 hPa Calm   0.2 km/h 93 % 0.0 mm 0.0 W/m2 CLR
06:03 4.1 °C 3.1 °C 1021.6 hPa Calm     93 % 0.0 mm 0.0 W/m2 CLR
06:08 4.1 °C 3.1 °C 1021.6 hPa Calm     93 % 0.0 mm 0.0 W/m2 CLR
06:13 4.1 °C 3.0 °C 1021.6 hPa Calm     93 % 0.0 mm 0.0 W/m2 CLR
06:18 4.1 °C 3.0 °C 1021.6 hPa Calm     93 % 0.0 mm 0.0 W/m2 CLR
06:23 4.1 °C 3.0 °C 1021.6 hPa Calm     93 % 0.0 mm 0.0 W/m2 CLR
06:28 4.1 °C 3.0 °C 1021.6 hPa Calm     93 % 0.0 mm 0.0 W/m2 CLR
06:33 4.0 °C 2.8 °C 1021.6 hPa Calm     92 % 0.0 mm 0.0 W/m2 CLR
06:38 3.9 °C 2.8 °C 1021.6 hPa Calm     92 % 0.0 mm 0.0 W/m2 CLR
06:43 3.8 °C 2.7 °C 1021.6 hPa Calm     92 % 0.0 mm 0.0 W/m2 CLR
06:48 3.7 °C 2.6 °C 1021.6 hPa Calm     92 % 0.0 mm 0.0 W/m2 CLR
06:54 3.6 °C 2.4 °C 1021.6 hPa Calm     92 % 0.0 mm 0.0 W/m2 CLR
06:59 3.5 °C 2.3 °C 1021.9 hPa NW 5.6 km/h 5.6 km/h 92 % 0.0 mm 0.0 W/m2 CLR
07:04 3.4 °C 2.3 °C 1021.6 hPa NW 11.3 km/h 11.3 km/h 92 % 0.0 mm 0.0 W/m2 CLR
07:09 3.3 °C 2.2 °C 1021.6 hPa WNW 5.6 km/h 5.6 km/h 92 % 0.0 mm 0.0 W/m2 CLR
07:14 3.3 °C 2.1 °C 1021.6 hPa Calm     92 % 0.0 mm 0.0 W/m2 CLR
07:19 3.2 °C 2.1 °C 1021.6 hPa Calm     92 % 0.0 mm 0.0 W/m2 CLR
07:24 3.2 °C 2.0 °C 1021.6 hPa WNW 7.4 km/h   92 % 0.0 mm 0.0 W/m2 CLR
07:29 3.1 °C 1.9 °C 1021.9 hPa WNW 11.1 km/h 11.1 km/h 92 % 0.0 mm 0.0 W/m2 CLR
07:34 2.9 °C 1.8 °C 1021.9 hPa WNW 7.4 km/h 7.4 km/h 92 % 0.0 mm 0.0 W/m2 CLR
07:39 2.9 °C 1.7 °C 1021.9 hPa Calm     92 % 0.0 mm 0.0 W/m2 CLR
07:44 2.9 °C 1.9 °C 1021.9 hPa Calm     93 % 0.0 mm 0.0 W/m2 CLR
07:49 2.9 °C 1.9 °C 1021.9 hPa Calm     93 % 0.0 mm 0.0 W/m2 CLR
07:54 2.9 °C 1.9 °C 1021.9 hPa Calm     93 % 0.0 mm 0.0 W/m2 CLR
07:59 2.9 °C 1.9 °C 1021.9 hPa Calm     93 % 0.0 mm 0.0 W/m2 CLR
08:04 2.9 °C 1.9 °C 1021.9 hPa Calm     93 % 0.0 mm 0.0 W/m2 CLR
08:09 2.9 °C 1.9 °C 1021.9 hPa Calm     93 % 0.0 mm 0.0 W/m2 CLR
08:14 2.9 °C 1.9 °C 1021.9 hPa Calm     93 % 0.0 mm 0.0 W/m2 CLR
08:19 2.9 °C 1.9 °C 1021.9 hPa Calm     93 % 0.0 mm 0.0 W/m2 OVC
08:24 3.0 °C 2.0 °C 1021.9 hPa Calm     93 % 0.0 mm 0.0 W/m2 OVC
08:29 3.0 °C 2.0 °C 1021.9 hPa Calm     93 % 0.0 mm 0.0 W/m2 OVC
08:34 3.1 °C 2.1 °C 1021.9 hPa Calm     93 % 0.0 mm 9.0 W/m2 OVC
08:39 3.1 °C 2.1 °C 1021.9 hPa Calm     93 % 0.0 mm 12.0 W/m2 BKN
08:44 3.1 °C 2.1 °C 1021.9 hPa Calm     93 % 0.0 mm 14.0 W/m2 BKN
08:49 3.2 °C 2.2 °C 1021.9 hPa Calm     93 % 0.0 mm 21.0 W/m2 BKN
08:54 3.2 °C 2.2 °C 1021.9 hPa Calm     93 % 0.0 mm 26.0 W/m2 BKN
08:59 3.2 °C 2.2 °C 1021.9 hPa Calm     93 % 0.0 mm 28.0 W/m2 BKN
09:04 3.2 °C 2.2 °C 1021.9 hPa Calm     93 % 0.0 mm 37.0 W/m2 BKN
09:09 3.2 °C 2.2 °C 1021.9 hPa Calm     93 % 0.0 mm 42.0 W/m2 BKN
09:14 3.2 °C 2.2 °C 1021.9 hPa Calm     93 % 0.0 mm 60.0 W/m2 BKN
09:19 3.2 °C 2.2 °C 1021.9 hPa Calm     93 % 0.0 mm 62.0 W/m2 BKN
09:24 3.2 °C 2.2 °C 1021.9 hPa Calm     93 % 0.0 mm 74.0 W/m2 BKN
09:29 3.3 °C 2.4 °C 1021.9 hPa Calm     94 % 0.0 mm 125.0 W/m2 BKN
09:34 3.4 °C 2.4 °C 1021.9 hPa Calm     93 % 0.0 mm 134.0 W/m2 BKN
09:35 3.5 °C 2.5 °C 1021.9 hPa Calm     93 % 0.0 mm 144.0 W/m2 BKN
09:40 3.7 °C 2.8 °C 1021.9 hPa Calm     94 % 0.0 mm 137.0 W/m2 BKN
09:45 3.8 °C 2.7 °C 1021.6 hPa Calm     93 % 0.0 mm 158.0 W/m2 BKN
09:50 3.9 °C 2.8 °C 1021.6 hPa Calm     93 % 0.0 mm 183.0 W/m2 BKN
09:55 4.1 °C 3.1 °C 1021.9 hPa Calm     93 % 0.0 mm 127.0 W/m2 BKN
10:00 4.2 °C 3.2 °C 1021.9 hPa Calm     93 % 0.0 mm 174.0 W/m2 BKN
10:05 4.4 °C 3.3 °C 1022.2 hPa Calm     93 % 0.0 mm 188.0 W/m2 BKN
10:10 4.6 °C 3.5 °C 1022.2 hPa Calm     93 % 0.0 mm 127.0 W/m2 BKN
10:15 4.5 °C 3.4 °C 1022.2 hPa Calm     93 % 0.0 mm 130.0 W/m2 BKN
10:20 4.6 °C 3.4 °C 1022.2 hPa Calm     92 % 0.0 mm 167.0 W/m2 BKN
10:25 4.6 °C 3.4 °C 1022.2 hPa Calm     92 % 0.0 mm 146.0 W/m2 BKN
10:30 4.8 °C 3.6 °C 1022.2 hPa Calm     92 % 0.0 mm 153.0 W/m2 BKN
10:35 4.9 °C 3.7 °C 1022.2 hPa Calm     92 % 0.0 mm 171.0 W/m2 BKN
10:40 4.9 °C 3.8 °C 1022.2 hPa Calm     92 % 0.0 mm 178.0 W/m2 BKN
10:45 5.1 °C 3.9 °C 1022.2 hPa Calm     92 % 0.0 mm 183.0 W/m2 BKN
10:50 5.2 °C 4.1 °C 1022.2 hPa Calm     92 % 0.0 mm 176.0 W/m2 BKN
10:55 5.3 °C 4.1 °C 1022.2 hPa Calm     92 % 0.0 mm 155.0 W/m2 BKN
11:00 5.4 °C 4.2 °C 1022.2 hPa Calm     92 % 0.0 mm 153.0 W/m2 BKN
11:05 5.3 °C 4.0 °C 1022.2 hPa NNE 9.7 km/h 9.7 km/h 91 % 0.0 mm 185.0 W/m2 BKN
11:10 5.4 °C 3.9 °C 1022.6 hPa North 9.7 km/h 9.7 km/h 90 % 0.0 mm 156.0 W/m2 BKN
11:15 5.4 °C 3.6 °C 1022.6 hPa North 9.3 km/h 9.3 km/h 88 % 0.0 mm 146.0 W/m2 BKN
11:20 5.4 °C 3.4 °C 1022.2 hPa North 9.3 km/h 9.3 km/h 87 % 0.0 mm 197.0 W/m2 BKN
11:25 5.5 °C 3.7 °C 1022.6 hPa NNW 7.4 km/h 7.4 km/h 88 % 0.0 mm 192.0 W/m2 BKN
11:30 5.6 °C 3.7 °C 1022.2 hPa NW 5.6 km/h 5.6 km/h 88 % 0.0 mm 211.0 W/m2 BKN
11:35 5.6 °C 3.7 °C 1022.2 hPa NW 1.9 km/h   88 % 0.0 mm 248.0 W/m2 BKN
11:40 5.6 °C 3.6 °C 1022.2 hPa Calm     87 % 0.0 mm 262.0 W/m2 BKN
11:45 5.7 °C 3.7 °C 1021.9 hPa Calm     87 % 0.0 mm 206.0 W/m2 BKN
11:50 5.9 °C 4.1 °C 1021.9 hPa Calm     88 % 0.0 mm 313.0 W/m2 BKN
11:55 6.2 °C 4.2 °C 1021.9 hPa Calm     87 % 0.0 mm 204.0 W/m2 SCT
12:00 6.4 °C 3.7 °C 1021.9 hPa Calm     83 % 0.0 mm 302.0 W/m2 SCT
12:05 6.6 °C 3.8 °C 1021.6 hPa Calm     82 % 0.0 mm 327.0 W/m2 SCT
12:10 6.8 °C 4.0 °C 1021.6 hPa Calm     82 % 0.0 mm 309.0 W/m2 SCT
12:15 7.1 °C 4.2 °C 1021.6 hPa Calm     82 % 0.0 mm 322.0 W/m2 SCT
12:20 7.2 °C 4.0 °C 1021.6 hPa Calm     80 % 0.0 mm 323.0 W/m2 SCT
12:25 7.2 °C 3.9 °C 1021.2 hPa Calm     80 % 0.0 mm 281.0 W/m2 SCT
12:30 7.2 °C 4.3 °C 1021.2 hPa Calm     82 % 0.0 mm 315.0 W/m2 SCT
12:35 7.2 °C 4.3 °C 1021.2 hPa Calm     82 % 0.0 mm 214.0 W/m2 SCT
12:40 7.0 °C 3.9 °C 1021.2 hPa Calm     81 % 0.0 mm 211.0 W/m2 BKN
12:45 6.9 °C 3.7 °C 1020.9 hPa Calm     80 % 0.0 mm 200.0 W/m2 BKN
12:50 6.9 °C 3.9 °C 1020.9 hPa Calm     81 % 0.0 mm 199.0 W/m2 BKN
12:55 7.0 °C 4.1 °C 1020.9 hPa Calm     82 % 0.0 mm 213.0 W/m2 BKN
13:00 7.0 °C 3.9 °C 1020.5 hPa NNW 16.7 km/h 16.7 km/h 81 % 0.0 mm 195.0 W/m2 BKN
13:05 7.1 °C 4.0 °C 1020.5 hPa NNW 16.7 km/h 16.7 km/h 81 % 0.0 mm 223.0 W/m2 BKN
13:10 7.1 °C 4.0 °C 1020.5 hPa NNW 9.3 km/h 9.7 km/h 81 % 0.0 mm 230.0 W/m2 BKN
13:15 7.1 °C 4.2 °C 1020.2 hPa NW 9.7 km/h 9.7 km/h 82 % 0.0 mm 165.0 W/m2 BKN
13:20 7.1 °C 4.4 °C 1020.2 hPa NW 9.7 km/h 9.7 km/h 83 % 0.0 mm 142.0 W/m2 BKN
13:25 7.1 °C 4.4 °C 1020.2 hPa NW 9.3 km/h 9.3 km/h 83 % 0.0 mm 151.0 W/m2 BKN
13:31 7.1 °C 4.4 °C 1020.2 hPa NW 5.6 km/h   83 % 0.0 mm 174.0 W/m2 BKN
13:36 7.1 °C 4.4 °C 1020.2 hPa NW 9.3 km/h   83 % 0.0 mm 167.0 W/m2 BKN
13:41 7.1 °C 4.2 °C 1020.2 hPa NW 14.8 km/h 14.8 km/h 82 % 0.0 mm 135.0 W/m2 BKN
13:46 7.1 °C 4.2 °C 1020.2 hPa Calm     82 % 0.0 mm 81.0 W/m2 BKN
13:51 7.2 °C 4.4 °C 1020.2 hPa Calm     83 % 0.0 mm 62.0 W/m2 BKN
13:56 7.2 °C 4.4 °C 1019.9 hPa NW 14.5 km/h 14.5 km/h 83 % 0.0 mm 54.0 W/m2 BKN
14:01 7.1 °C 4.4 °C 1019.9 hPa NW 14.8 km/h 14.8 km/h 83 % 0.0 mm 90.0 W/m2 BKN
14:06 7.1 °C 4.4 °C 1019.9 hPa NW 14.8 km/h 14.8 km/h 83 % 0.0 mm 76.0 W/m2 BKN
14:11 7.0 °C 4.3 °C 1019.9 hPa Calm     83 % 0.0 mm 54.0 W/m2 BKN
14:16 7.0 °C 4.3 °C 1019.9 hPa Calm     83 % 0.0 mm 58.0 W/m2 BKN
14:21 7.0 °C 4.1 °C 1019.9 hPa WNW 14.8 km/h 14.8 km/h 82 % 0.0 mm 83.0 W/m2 BKN
14:26 6.9 °C 4.1 °C 1019.5 hPa WNW 9.3 km/h 9.3 km/h 82 % 0.0 mm 67.0 W/m2 BKN
14:31 7.0 °C 4.1 °C 1019.5 hPa Calm     82 % 0.0 mm 49.0 W/m2 BKN
14:36 6.9 °C 3.8 °C 1019.5 hPa NW 16.7 km/h 16.7 km/h 81 % 0.0 mm 46.0 W/m2 BKN
14:41 6.9 °C 3.8 °C 1019.5 hPa NW 16.7 km/h 16.7 km/h 81 % 0.0 mm 63.0 W/m2 BKN
14:46 6.9 °C 3.8 °C 1019.2 hPa NW 1.9 km/h   81 % 0.0 mm 83.0 W/m2 BKN
14:51 6.9 °C 3.8 °C 1019.2 hPa WNW 11.1 km/h 11.1 km/h 81 % 0.0 mm 74.0 W/m2 BKN
14:56 6.9 °C 3.8 °C 1019.2 hPa NW 13.0 km/h 13.0 km/h 81 % 0.0 mm 62.0 W/m2 BKN
15:01 6.9 °C 3.8 °C 1019.5 hPa NW 9.3 km/h 9.3 km/h 81 % 0.0 mm 49.0 W/m2 BKN
15:06 6.9 °C 3.8 °C 1019.5 hPa Calm     81 % 0.0 mm 47.0 W/m2 BKN
15:11 6.9 °C 3.8 °C 1019.5 hPa NNW 1.9 km/h   81 % 0.0 mm 46.0 W/m2 BKN
15:16 6.8 °C 4.0 °C 1019.5 hPa WNW 16.1 km/h 16.1 km/h 82 % 0.0 mm 32.0 W/m2 BKN
15:21 6.7 °C 4.0 °C 1019.5 hPa WNW 11.3 km/h 11.3 km/h 83 % 0.0 mm 26.0 W/m2 BKN
15:26 6.6 °C 3.9 °C 1019.5 hPa WNW 7.4 km/h 7.4 km/h 83 % 0.0 mm 30.0 W/m2 BKN
15:31 6.6 °C 3.9 °C 1019.5 hPa NW 7.4 km/h 7.4 km/h 83 % 0.0 mm 33.0 W/m2 BKN
15:36 6.6 °C 3.9 °C 1019.5 hPa Calm     83 % 0.0 mm 40.0 W/m2 BKN
15:41 6.6 °C 4.1 °C 1019.2 hPa NW 11.1 km/h 11.1 km/h 84 % 0.0 mm 33.0 W/m2 BKN
15:46 6.6 °C 4.1 °C 1019.2 hPa NW 9.3 km/h 9.3 km/h 84 % 0.0 mm 25.0 W/m2 BKN
15:51 6.6 °C 4.1 °C 1019.2 hPa WNW 11.3 km/h 11.3 km/h 84 % 0.0 mm 23.0 W/m2 BKN
15:56 6.6 °C 4.1 °C 1019.2 hPa WNW 11.1 km/h 11.1 km/h 84 % 0.0 mm 18.0 W/m2 BKN
16:01 6.6 °C 4.1 °C 1019.2 hPa WNW 9.3 km/h 9.3 km/h 84 % 0.0 mm 16.0 W/m2 BKN
16:06 6.6 °C 4.1 °C 1019.2 hPa WNW 7.4 km/h 7.4 km/h 84 % 0.0 mm 18.0 W/m2 BKN
16:11 6.7 °C 4.2 °C 1019.2 hPa WNW 9.3 km/h 9.3 km/h 84 % 0.0 mm 19.0 W/m2 BKN
16:16 6.8 °C 4.1 °C 1019.2 hPa WNW 7.4 km/h 7.4 km/h 83 % 0.0 mm 21.0 W/m2 BKN
16:21 6.8 °C 4.2 °C 1018.8 hPa WNW 13.0 km/h 13.0 km/h 83 % 0.0 mm 19.0 W/m2 BKN
16:26 6.9 °C 4.2 °C 1018.8 hPa WNW 16.7 km/h 16.7 km/h 83 % 0.0 mm 12.0 W/m2 BKN
16:31 6.9 °C 4.3 °C 1018.8 hPa NW 20.4 km/h 20.4 km/h 83 % 0.0 mm 16.0 W/m2 BKN
16:36 7.0 °C 4.1 °C 1018.8 hPa NW 18.5 km/h 18.5 km/h 82 % 0.0 mm 16.0 W/m2 BKN
16:41 7.2 °C 3.9 °C 1019.2 hPa NW 13.0 km/h 13.0 km/h 80 % 0.0 mm 18.0 W/m2 BKN
16:46 7.2 °C 4.0 °C 1019.2 hPa NW 13.0 km/h 13.0 km/h 80 % 0.0 mm 21.0 W/m2 FEW
16:51 7.2 °C 4.0 °C 1019.2 hPa Calm     80 % 0.0 mm 25.0 W/m2 SCT
16:56 7.2 °C 4.2 °C 1019.2 hPa Calm     81 % 0.0 mm 14.0 W/m2 BKN
17:01 7.2 °C 4.1 °C 1019.2 hPa Calm     81 % 0.0 mm 12.0 W/m2 OVC
17:06 7.2 °C 4.1 °C 1019.2 hPa Calm     81 % 0.0 mm 14.0 W/m2 OVC
17:11 7.1 °C 4.2 °C 1019.2 hPa Calm     82 % 0.0 mm 19.0 W/m2 OVC
17:16 7.1 °C 4.2 °C 1019.2 hPa Calm     82 % 0.0 mm 16.0 W/m2 OVC
17:21 7.1 °C 4.1 °C 1019.2 hPa Calm     81 % 0.0 mm 12.0 W/m2 OVC
17:26 7.1 °C 4.1 °C 1019.2 hPa Calm     81 % 0.0 mm 11.0 W/m2 OVC
17:31 7.2 °C 4.1 °C 1019.2 hPa Calm     81 % 0.0 mm 5.0 W/m2 OVC
17:36 7.2 °C 4.1 °C 1019.5 hPa Calm     81 % 0.0 mm 5.0 W/m2 OVC
17:41 7.2 °C 3.9 °C 1019.5 hPa Calm     80 % 0.0 mm 0.0 W/m2 OVC
17:46 7.2 °C 3.9 °C 1019.5 hPa Calm     80 % 0.0 mm 0.0 W/m2 OVC
17:51 7.2 °C 4.1 °C 1019.5 hPa Calm     81 % 0.0 mm 0.0 W/m2 OVC
17:56 7.1 °C 4.1 °C 1019.5 hPa Calm     81 % 0.0 mm 0.0 W/m2 OVC
18:01 7.1 °C 4.0 °C 1019.5 hPa Calm     81 % 0.0 mm 0.0 W/m2 OVC
18:06 7.1 °C 4.1 °C 1019.5 hPa Calm     81 % 0.0 mm 0.0 W/m2 CLR
18:11 7.0 °C 3.9 °C 1019.5 hPa Calm     81 % 0.0 mm 0.0 W/m2 CLR
18:16 7.0 °C 3.9 °C 1019.5 hPa Calm     81 % 0.0 mm 0.0 W/m2 CLR
18:21 6.9 °C 4.1 °C 1019.2 hPa Calm     82 % 0.0 mm 0.0 W/m2 CLR
18:26 6.9 °C 4.0 °C 1019.5 hPa Calm     82 % 0.0 mm 0.0 W/m2 CLR
18:31 6.8 °C 3.8 °C 1019.5 hPa Calm     81 % 0.0 mm 0.0 W/m2 CLR
18:37 6.8 °C 4.0 °C 1019.5 hPa Calm     82 % 0.0 mm 0.0 W/m2 CLR
18:42 6.8 °C 4.2 °C 1019.5 hPa Calm     83 % 0.0 mm 0.0 W/m2 CLR
18:47 6.7 °C 3.9 °C 1019.5 hPa Calm     82 % 0.0 mm 0.0 W/m2 CLR
18:52 6.7 °C 3.9 °C 1019.5 hPa Calm     82 % 0.0 mm 0.0 W/m2 CLR
18:57 6.7 °C 4.1 °C 1019.5 hPa Calm     83 % 0.0 mm 0.0 W/m2 CLR
19:02 6.7 °C 4.2 °C 1019.9 hPa Calm     84 % 0.0 mm 0.0 W/m2 CLR
19:07 6.6 °C 4.1 °C 1019.9 hPa Calm     84 % 0.0 mm 0.0 W/m2 CLR
19:12 6.4 °C 4.1 °C 1019.9 hPa Calm     85 % 0.0 mm 0.0 W/m2 CLR
19:17 6.4 °C 4.1 °C 1019.9 hPa Calm     85 % 0.0 mm 0.0 W/m2 CLR
19:22 6.4 °C 4.2 °C 1019.9 hPa Calm     86 % 0.0 mm 0.0 W/m2 CLR
19:27 6.2 °C 4.1 °C 1019.9 hPa Calm     86 % 0.0 mm 0.0 W/m2 CLR
19:32 6.2 °C 4.1 °C 1019.9 hPa Calm     86 % 0.0 mm 0.0 W/m2 CLR
19:37 6.2 °C 4.2 °C 1019.9 hPa Calm     87 % 0.0 mm 0.0 W/m2 CLR
19:42 6.2 °C 4.2 °C 1019.9 hPa Calm     87 % 0.0 mm 0.0 W/m2 CLR
19:47 6.1 °C 4.1 °C 1019.9 hPa Calm     87 % 0.0 mm 0.0 W/m2 CLR
19:52 6.1 °C 4.2 °C 1019.9 hPa Calm     88 % 0.0 mm 0.0 W/m2 CLR
19:57 5.9 °C 4.1 °C 1019.9 hPa Calm     88 % 0.0 mm 0.0 W/m2 CLR
20:02 5.8 °C 4.2 °C 1019.9 hPa Calm     89 % 0.0 mm 0.0 W/m2 CLR
20:07 5.8 °C 4.1 °C 1019.9 hPa Calm     89 % 0.0 mm 0.0 W/m2 CLR
20:12 5.8 °C 4.1 °C 1019.9 hPa Calm     89 % 0.0 mm 0.0 W/m2 CLR
20:17 5.8 °C 4.1 °C 1019.5 hPa Calm     89 % 0.0 mm 0.0 W/m2 CLR
20:22 5.8 °C 3.9 °C 1019.5 hPa Calm     88 % 0.0 mm 0.0 W/m2 CLR
20:27 5.8 °C 3.9 °C 1019.9 hPa Calm     88 % 0.0 mm 0.0 W/m2 CLR
20:32 5.7 °C 3.8 °C 1019.5 hPa Calm     88 % 0.0 mm 0.0 W/m2 CLR
20:37 5.6 °C 3.9 °C 1019.5 hPa Calm     89 % 0.0 mm 0.0 W/m2 CLR
20:42 5.6 °C 3.8 °C 1019.9 hPa Calm     88 % 0.0 mm 0.0 W/m2 CLR
20:47 5.6 °C 3.8 °C 1019.9 hPa Calm     88 % 0.0 mm 0.0 W/m2 CLR
20:52 5.6 °C 3.9 °C 1019.9 hPa Calm     89 % 0.0 mm 0.0 W/m2 CLR
20:57 5.5 °C 3.8 °C 1019.9 hPa Calm     89 % 0.0 mm 0.0 W/m2 CLR
21:02 5.4 °C 3.8 °C 1019.5 hPa Calm     89 % 0.0 mm 0.0 W/m2 CLR
21:07 5.4 °C 3.7 °C 1019.5 hPa Calm     89 % 0.0 mm 0.0 W/m2 CLR
21:12 5.3 °C 3.7 °C 1019.5 hPa Calm     89 % 0.0 mm 0.0 W/m2 CLR
21:17 5.4 °C 3.7 °C 1019.5 hPa Calm     89 % 0.0 mm 0.0 W/m2 CLR
21:22 5.3 °C 3.7 °C 1019.2 hPa Calm     89 % 0.0 mm 0.0 W/m2 CLR
21:27 5.2 °C 3.5 °C 1019.5 hPa Calm     89 % 0.0 mm 0.0 W/m2 CLR
21:32 5.1 °C 3.4 °C 1019.9 hPa Calm     89 % 0.0 mm 0.0 W/m2 CLR
21:37 5.1 °C 3.6 °C 1019.9 hPa Calm     90 % 0.0 mm 0.0 W/m2 CLR
21:42 5.1 °C 3.6 °C 1019.5 hPa Calm     90 % 0.0 mm 0.0 W/m2 CLR
21:47 5.1 °C 3.6 °C 1019.5 hPa Calm     90 % 0.0 mm 0.0 W/m2 CLR
21:52 5.1 °C 3.6 °C 1019.5 hPa Calm     90 % 0.0 mm 0.0 W/m2 CLR
21:57 5.1 °C 3.6 °C 1019.9 hPa Calm     90 % 0.0 mm 0.0 W/m2 CLR
22:02 5.1 °C 3.6 °C 1019.9 hPa Calm     90 % 0.0 mm 0.0 W/m2 CLR
22:07 5.1 °C 3.6 °C 1019.9 hPa Calm     90 % 0.0 mm 0.0 W/m2 CLR
22:12 5.1 °C 3.6 °C 1019.5 hPa Calm     90 % 0.0 mm 0.0 W/m2 CLR
22:17 5.1 °C 3.6 °C 1019.5 hPa Calm     90 % 0.0 mm 0.0 W/m2 CLR
22:22 5.3 °C 3.8 °C 1019.9 hPa Calm     90 % 0.0 mm 0.0 W/m2 CLR
22:27 5.4 °C 3.7 °C 1019.9 hPa NW 14.8 km/h 14.8 km/h 89 % 0.0 mm 0.0 W/m2 CLR
22:32 5.7 °C 3.9 °C 1019.9 hPa WNW 5.6 km/h   88 % 0.0 mm 0.0 W/m2 CLR
22:37 5.7 °C 3.7 °C 1019.5 hPa Calm     87 % 0.0 mm 0.0 W/m2 CLR
22:42 6.0 °C 3.8 °C 1019.5 hPa NW 11.1 km/h 11.1 km/h 86 % 0.0 mm 0.0 W/m2 CLR
22:47 6.6 °C 3.9 °C 1019.2 hPa NW 14.8 km/h 14.8 km/h 83 % 0.0 mm 0.0 W/m2 CLR
22:52 7.1 °C 3.8 °C 1019.5 hPa NW 14.8 km/h 14.8 km/h 80 % 0.0 mm 0.0 W/m2 CLR
22:57 7.4 °C 3.7 °C 1019.5 hPa NNW 20.4 km/h 20.4 km/h 77 % 0.0 mm 0.0 W/m2 CLR
23:02 7.8 °C 3.4 °C 1019.5 hPa NNW 11.1 km/h 11.1 km/h 74 % 0.0 mm 0.0 W/m2 CLR
23:07 7.9 °C 3.2 °C 1019.5 hPa NNW 18.5 km/h 18.5 km/h 72 % 0.0 mm 0.0 W/m2 CLR
23:12 8.0 °C 3.4 °C 1019.5 hPa NNW 11.1 km/h 11.1 km/h 73 % 0.0 mm 0.0 W/m2 CLR
23:17 7.9 °C 3.2 °C 1019.5 hPa Calm     72 % 0.0 mm 0.0 W/m2 CLR
23:22 7.8 °C 3.3 °C 1019.5 hPa Calm     73 % 0.0 mm 0.0 W/m2 CLR
23:27 7.6 °C 3.4 °C 1019.5 hPa Calm     75 % 0.0 mm 0.0 W/m2 CLR
23:32 7.4 °C 3.4 °C 1019.5 hPa Calm     76 % 0.0 mm 0.0 W/m2 CLR
23:37 7.1 °C 3.3 °C 1019.5 hPa Calm     77 % 0.0 mm 0.0 W/m2 CLR
23:43 7.1 °C 3.3 °C 1019.2 hPa Calm     77 % 0.0 mm 0.0 W/m2 CLR
23:48 6.9 °C 3.4 °C 1019.2 hPa Calm     78 % 0.0 mm 0.0 W/m2 CLR
23:53 6.8 °C 3.4 °C 1019.2 hPa Calm     79 % 0.0 mm 0.0 W/m2 CLR
23:58 6.7 °C 3.5 °C 1019.2 hPa Calm     80 % 0.0 mm 0.0 W/m2 CLR
Lo Temps de Massalio
Compliments of Weather Underground - 1.25 mb